Time;durP1;ratioP1;P1;durP2;ratioP2;P2;SDS_P1;SDS_P2;PMS_P1;PMS_P2;Temp;Humidity;BMP_temperature;BMP_pressure;BME280_temperature;BME280_humidity;BME280_pressure;Samples;Min_cycle;Max_cycle;Signal;HPM_P1;HPM_P2
2023/03/22 00:00:50;;;;;;;7.40;6.43;;;13.20;99.90;;;;;;5024510;28;20489;-64
2023/03/22 00:03:16;;;;;;;8.20;6.43;;;13.20;99.90;;;;;;5029207;28;20448;-62
2023/03/22 00:05:42;;;;;;;10.13;6.37;;;13.20;99.90;;;;;;5028183;28;20470;-62
2023/03/22 00:08:08;;;;;;;9.93;6.37;;;13.20;99.90;;;;;;5023671;28;20208;-62
2023/03/22 00:10:36;;;;;;;9.20;6.90;;;13.20;99.90;;;;;;5026759;28;20266;-63
2023/03/22 00:13:03;;;;;;;7.70;6.50;;;13.20;99.90;;;;;;5022865;28;20442;-62
2023/03/22 00:15:29;;;;;;;7.70;6.13;;;13.20;99.90;;;;;;5024050;28;20838;-62
2023/03/22 00:17:56;;;;;;;8.20;5.90;;;13.10;99.90;;;;;;5024274;28;20465;-62
2023/03/22 00:20:22;;;;;;;8.83;6.60;;;13.10;99.90;;;;;;5029157;28;20226;-62
2023/03/22 00:22:48;;;;;;;8.67;6.20;;;13.10;99.90;;;;;;5026727;28;20511;-62
2023/03/22 00:25:14;;;;;;;7.33;5.47;;;13.10;99.90;;;;;;5029191;28;20478;-63
2023/03/22 00:27:40;;;;;;;7.47;5.90;;;13.00;99.90;;;;;;5029438;28;20790;-62
2023/03/22 00:30:06;;;;;;;6.07;5.43;;;13.00;99.90;;;;;;5024370;28;20504;-62
2023/03/22 00:32:41;;;;;;;8.30;5.90;;;13.00;99.90;;;;;;5027403;28;20224;-62
2023/03/22 00:35:08;;;;;;;7.10;5.47;;;13.00;99.90;;;;;;5030360;28;20469;-62
2023/03/22 00:37:37;;;;;;;8.27;6.27;;;13.00;99.90;;;;;;5029064;28;20559;-62
2023/03/22 00:40:07;;;;;;;7.57;6.00;;;13.00;99.90;;;;;;5029495;28;20446;-62
2023/03/22 00:42:34;;;;;;;7.30;5.80;;;13.00;99.90;;;;;;5031413;28;20811;-62
2023/03/22 00:45:00;;;;;;;8.27;5.70;;;13.00;99.90;;;;;;5022452;28;20423;-62
2023/03/22 00:47:25;;;;;;;7.50;5.90;;;12.90;99.90;;;;;;5029008;28;20461;-62
2023/03/22 00:49:51;;;;;;;7.33;5.73;;;12.90;99.90;;;;;;5024083;28;20168;-62
2023/03/22 00:52:16;;;;;;;6.13;5.40;;;12.90;99.90;;;;;;5021760;28;20177;-62
2023/03/22 00:54:42;;;;;;;7.30;5.93;;;12.80;99.90;;;;;;5025422;28;20180;-62
2023/03/22 00:57:08;;;;;;;5.73;5.13;;;12.80;99.90;;;;;;5026774;28;20324;-61
2023/03/22 00:59:37;;;;;;;8.30;5.80;;;12.80;99.90;;;;;;5034070;28;20465;-62
2023/03/22 01:02:04;;;;;;;6.33;5.07;;;12.80;99.90;;;;;;5027051;28;20684;-62
2023/03/22 01:04:30;;;;;;;5.80;5.30;;;12.70;99.90;;;;;;5026230;28;20668;-62
2023/03/22 01:07:00;;;;;;;8.20;5.20;;;12.70;99.90;;;;;;5029319;28;20517;-62
2023/03/22 01:09:29;;;;;;;5.60;5.00;;;12.70;99.90;;;;;;5033128;28;20432;-62
2023/03/22 01:11:56;;;;;;;6.70;6.00;;;12.70;99.90;;;;;;5023233;28;20496;-62
2023/03/22 01:14:23;;;;;;;6.43;5.70;;;12.70;99.90;;;;;;5029221;28;20438;-62
2023/03/22 01:16:49;;;;;;;6.60;5.03;;;12.70;99.90;;;;;;5026781;28;20849;-61
2023/03/22 01:19:14;;;;;;;7.03;5.70;;;12.70;99.90;;;;;;5022491;28;20466;-62
2023/03/22 01:21:40;;;;;;;5.70;5.10;;;12.70;99.90;;;;;;5026053;28;20184;-62
2023/03/22 01:24:06;;;;;;;6.87;5.60;;;12.70;99.90;;;;;;5024417;28;20210;-62
2023/03/22 01:26:31;;;;;;;6.57;5.17;;;12.70;99.90;;;;;;5031239;28;20384;-62
2023/03/22 01:28:57;;;;;;;5.07;4.57;;;12.70;99.90;;;;;;5023074;28;20435;-62
2023/03/22 01:31:23;;;;;;;6.67;5.27;;;12.60;99.90;;;;;;5025104;28;20665;-62
2023/03/22 01:33:48;;;;;;;7.53;5.87;;;12.60;99.90;;;;;;5028545;28;20183;-62
2023/03/22 01:36:14;;;;;;;6.37;5.33;;;12.50;99.90;;;;;;5027243;28;20390;-62
2023/03/22 01:38:39;;;;;;;6.20;5.60;;;12.50;99.90;;;;;;5027300;28;20187;-62
2023/03/22 01:41:05;;;;;;;7.03;4.73;;;12.50;99.90;;;;;;5029345;28;20187;-62
2023/03/22 01:43:31;;;;;;;7.60;5.20;;;12.50;99.90;;;;;;5028162;28;20275;-62
2023/03/22 01:45:57;;;;;;;6.27;5.20;;;12.50;99.90;;;;;;5026279;28;20992;-62
2023/03/22 01:48:40;;;;;;;8.93;5.30;;;12.40;99.90;;;;;;5025552;28;20623;-62
2023/03/22 01:51:10;;;;;;;8.73;5.27;;;12.40;99.90;;;;;;5025585;28;20183;-62
2023/03/22 01:53:47;;;;;;;8.97;4.77;;;12.50;99.90;;;;;;5049354;28;20439;-62
2023/03/22 01:56:12;;;;;;;6.97;5.20;;;12.40;99.90;;;;;;5028339;28;20434;-62
2023/03/22 01:58:40;;;;;;;6.70;5.10;;;12.40;99.90;;;;;;5022675;28;20442;-62
2023/03/22 02:01:07;;;;;;;6.67;5.07;;;12.40;99.90;;;;;;5024430;28;20200;-62
2023/03/22 02:04:07;;;;;;;6.30;5.30;;;12.40;99.90;;;;;;5023373;28;20441;-62
2023/03/22 02:06:37;;;;;;;5.60;4.97;;;12.40;99.90;;;;;;5027784;28;20465;-62
2023/03/22 02:09:10;;;;;;;5.90;5.30;;;12.40;99.90;;;;;;5025914;28;20630;-62
2023/03/22 02:11:58;;;;;;;5.80;5.20;;;12.40;99.90;;;;;;5027839;28;20438;-62
2023/03/22 02:14:39;;;;;;;6.70;5.67;;;12.40;99.90;;;;;;5030591;28;20534;-62
2023/03/22 02:17:23;;;;;;;5.40;4.90;;;12.40;99.90;;;;;;5024510;28;20879;-62
2023/03/22 02:20:17;;;;;;;7.77;5.13;;;12.40;99.90;;;;;;5024528;28;20849;-62
2023/03/22 02:23:08;;;;;;;6.70;5.30;;;12.40;99.90;;;;;;5025919;28;20439;-62
2023/03/22 02:25:51;;;;;;;7.23;4.60;;;12.30;99.90;;;;;;5032482;28;21005;-62
2023/03/22 02:28:30;;;;;;;5.87;4.80;;;12.30;99.90;;;;;;5021306;28;20828;-62
2023/03/22 02:31:33;;;;;;;5.47;4.93;;;12.30;99.90;;;;;;5019823;28;20444;-62
2023/03/22 02:34:14;;;;;;;6.20;4.63;;;12.30;99.90;;;;;;5018444;28;20454;-62
2023/03/22 02:37:11;;;;;;;5.10;4.50;;;12.30;99.90;;;;;;5028489;28;20481;-62
2023/03/22 02:39:57;;;;;;;6.90;4.80;;;12.30;99.90;;;;;;5021765;28;21019;-62
2023/03/22 02:43:02;;;;;;;7.27;5.20;;;12.30;99.90;;;;;;5029295;28;20511;-62
2023/03/22 02:45:33;;;;;;;6.87;5.10;;;12.30;99.90;;;;;;5025677;28;20573;-62
2023/03/22 02:48:25;;;;;;;6.33;5.00;;;12.30;99.90;;;;;;5021515;28;20876;-63
2023/03/22 02:50:57;;;;;;;6.50;5.43;;;12.40;99.90;;;;;;5024583;28;20439;-62
2023/03/22 02:53:36;;;;;;;6.67;5.10;;;12.40;99.90;;;;;;5024697;28;20447;-62
2023/03/22 02:56:17;;;;;;;6.20;5.07;;;12.40;99.90;;;;;;5024838;28;20805;-62
2023/03/22 02:58:52;;;;;;;6.53;5.83;;;12.40;99.90;;;;;;5025272;28;20496;-62
2023/03/22 03:01:25;;;;;;;6.13;5.07;;;12.50;99.90;;;;;;5018635;28;20434;-62
2023/03/22 03:03:58;;;;;;;7.70;4.80;;;12.50;99.90;;;;;;5019683;28;20807;-62
2023/03/22 03:06:29;;;;;;;8.50;5.27;;;12.60;99.90;;;;;;5023979;28;20471;-62
2023/03/22 03:08:56;;;;;;;5.90;5.13;;;12.60;99.90;;;;;;5023677;28;20715;-62
2023/03/22 03:11:23;;;;;;;7.33;4.63;;;12.60;99.90;;;;;;5022262;28;20439;-62
2023/03/22 03:13:49;;;;;;;8.50;5.10;;;12.70;99.90;;;;;;5023506;28;20441;-62
2023/03/22 03:16:26;;;;;;;7.70;4.80;;;12.70;99.90;;;;;;5023779;28;20944;-62
2023/03/22 03:19:00;;;;;;;6.30;4.53;;;12.60;99.90;;;;;;5025374;28;20470;-63
2023/03/22 03:21:41;;;;;;;6.07;4.80;;;12.70;99.90;;;;;;5017497;28;20500;-62
2023/03/22 03:24:31;;;;;;;4.53;4.13;;;12.70;99.90;;;;;;5026227;28;20528;-61
2023/03/22 03:27:22;;;;;;;5.30;4.43;;;12.80;99.90;;;;;;5025455;28;20470;-61
2023/03/22 03:30:00;;;;;;;5.60;4.60;;;12.80;99.90;;;;;;5025224;28;20448;-61
2023/03/22 03:32:46;;;;;;;5.80;4.13;;;12.70;99.90;;;;;;5029026;28;20449;-62
2023/03/22 03:35:21;;;;;;;4.30;3.90;;;12.70;99.90;;;;;;5029565;28;20441;-61
2023/03/22 03:38:19;;;;;;;8.40;4.47;;;12.60;99.90;;;;;;5033021;28;20457;-61
2023/03/22 03:40:49;;;;;;;6.00;4.27;;;12.60;99.90;;;;;;5030790;28;20509;-61
2023/03/22 03:43:15;;;;;;;5.33;4.67;;;12.50;99.90;;;;;;5027763;28;20463;-62
2023/03/22 03:45:41;;;;;;;4.50;4.00;;;12.50;99.90;;;;;;5033648;28;20829;-61
2023/03/22 03:48:12;;;;;;;5.90;4.03;;;12.40;99.90;;;;;;5028198;28;20449;-61
2023/03/22 03:50:38;;;;;;;5.63;4.40;;;12.40;99.90;;;;;;5027898;28;20196;-61
2023/03/22 03:53:03;;;;;;;6.83;4.37;;;12.40;99.90;;;;;;5031189;28;20492;-61
2023/03/22 03:55:30;;;;;;;4.70;4.13;;;12.30;99.90;;;;;;5036705;28;20183;-61
2023/03/22 03:57:56;;;;;;;5.00;4.10;;;12.30;99.90;;;;;;5028654;28;20234;-62
2023/03/22 04:00:21;;;;;;;9.00;3.57;;;12.30;99.90;;;;;;5033462;28;20441;-61
2023/03/22 04:02:47;;;;;;;5.60;4.60;;;12.30;99.90;;;;;;5031577;28;20177;-61
2023/03/22 04:05:13;;;;;;;8.23;4.13;;;12.30;99.90;;;;;;5025678;28;20207;-62
2023/03/22 04:07:38;;;;;;;4.30;3.90;;;12.20;99.90;;;;;;5031932;28;20198;-61
2023/03/22 04:10:05;;;;;;;7.00;4.40;;;12.20;99.90;;;;;;5032557;28;20596;-62
2023/03/22 04:12:31;;;;;;;8.13;4.23;;;12.20;99.90;;;;;;5029465;28;20247;-62
2023/03/22 04:14:57;;;;;;;5.90;4.83;;;12.10;99.90;;;;;;5027399;28;20435;-61
2023/03/22 04:17:22;;;;;;;4.57;3.50;;;12.10;99.90;;;;;;5030259;28;20458;-61
2023/03/22 04:19:48;;;;;;;5.57;4.17;;;12.00;99.90;;;;;;5031440;28;20216;-61
2023/03/22 04:22:17;;;;;;;7.77;4.80;;;11.90;99.90;;;;;;5030941;28;20185;-61
2023/03/22 04:24:48;;;;;;;4.70;4.20;;;11.90;99.90;;;;;;5036427;28;20215;-61
2023/03/22 04:27:15;;;;;;;4.77;4.03;;;11.90;99.90;;;;;;5030513;28;20522;-62
2023/03/22 04:29:47;;;;;;;5.87;4.07;;;11.90;99.90;;;;;;5033863;28;20536;-62
2023/03/22 04:32:22;;;;;;;5.30;3.90;;;11.90;99.90;;;;;;5031945;28;20433;-62
2023/03/22 04:34:49;;;;;;;4.93;4.10;;;11.90;99.90;;;;;;5028023;28;20452;-62
2023/03/22 04:37:15;;;;;;;6.77;4.43;;;11.80;99.90;;;;;;5027335;28;20451;-61
2023/03/22 04:39:41;;;;;;;5.73;4.30;;;11.80;99.90;;;;;;5027679;28;20442;-61
2023/03/22 04:42:07;;;;;;;4.60;4.00;;;11.70;99.90;;;;;;5025751;28;20509;-62
2023/03/22 04:44:33;;;;;;;4.60;4.20;;;11.70;99.90;;;;;;5028936;28;20184;-62
2023/03/22 04:46:59;;;;;;;7.30;4.63;;;11.70;99.90;;;;;;5026592;28;20250;-62
2023/03/22 04:49:25;;;;;;;4.97;4.10;;;11.60;99.90;;;;;;5024746;28;21096;-62
2023/03/22 04:51:52;;;;;;;5.97;5.00;;;11.50;99.90;;;;;;5025227;28;20481;-62
2023/03/22 04:54:18;;;;;;;7.77;4.30;;;11.50;99.90;;;;;;5030510;28;20443;-61
2023/03/22 04:56:44;;;;;;;7.83;4.93;;;11.50;99.90;;;;;;5026272;28;20461;-61
2023/03/22 04:59:09;;;;;;;5.20;4.50;;;11.50;99.90;;;;;;5021477;28;20738;-62
2023/03/22 05:01:36;;;;;;;6.17;4.17;;;11.50;99.90;;;;;;5026215;28;20183;-62
2023/03/22 05:04:02;;;;;;;5.27;4.23;;;11.50;99.90;;;;;;5028019;28;20180;-62
2023/03/22 05:06:31;;;;;;;5.47;4.30;;;11.50;99.90;;;;;;5028596;28;20495;-62
2023/03/22 05:08:57;;;;;;;6.53;4.70;;;11.50;99.90;;;;;;5027507;28;20443;-61
2023/03/22 05:11:26;;;;;;;6.00;4.20;;;11.40;99.90;;;;;;5025666;28;20534;-61
2023/03/22 05:13:55;;;;;;;6.43;4.27;;;11.40;99.90;;;;;;5027474;28;20438;-62
2023/03/22 05:16:21;;;;;;;4.83;4.27;;;11.40;99.90;;;;;;5028268;28;20474;-61
2023/03/22 05:18:48;;;;;;;6.87;4.37;;;11.40;99.90;;;;;;5028830;28;20447;-62
2023/03/22 05:21:16;;;;;;;6.07;4.50;;;11.40;99.90;;;;;;5025818;28;20554;-62
2023/03/22 05:23:43;;;;;;;5.47;4.13;;;11.40;99.90;;;;;;5027118;28;20444;-62
2023/03/22 05:26:10;;;;;;;7.10;4.70;;;11.40;99.90;;;;;;5028292;28;20553;-61
2023/03/22 05:28:37;;;;;;;5.80;4.00;;;11.40;99.90;;;;;;5030257;28;20442;-62
2023/03/22 05:31:04;;;;;;;6.47;4.00;;;11.40;99.90;;;;;;5027990;28;20958;-61
2023/03/22 05:33:30;;;;;;;6.70;4.67;;;11.40;99.90;;;;;;5028902;28;20977;-61
2023/03/22 05:35:56;;;;;;;5.07;3.67;;;11.40;99.90;;;;;;5023961;28;20808;-61
2023/03/22 05:38:21;;;;;;;6.50;4.10;;;11.40;99.90;;;;;;5023265;28;20449;-61
2023/03/22 05:40:47;;;;;;;4.47;3.80;;;11.40;99.90;;;;;;5028815;28;20547;-62
2023/03/22 05:43:14;;;;;;;7.30;4.20;;;11.30;99.90;;;;;;5022544;28;20192;-61
2023/03/22 05:45:39;;;;;;;5.50;4.37;;;11.40;99.90;;;;;;5029062;28;20512;-63
2023/03/22 05:48:05;;;;;;;7.80;4.13;;;11.30;99.90;;;;;;5026084;28;20458;-62
2023/03/22 05:50:32;;;;;;;4.67;4.00;;;11.40;99.90;;;;;;5025309;28;20218;-62
2023/03/22 05:52:57;;;;;;;4.70;3.63;;;11.40;99.90;;;;;;5030075;28;20217;-62
2023/03/22 05:55:23;;;;;;;5.07;4.33;;;11.30;99.90;;;;;;5026616;28;21230;-62
2023/03/22 05:57:51;;;;;;;5.53;4.00;;;11.30;99.90;;;;;;5025172;28;20204;-62
2023/03/22 06:00:17;;;;;;;8.10;5.53;;;11.30;99.90;;;;;;5022907;28;20434;-62
2023/03/22 06:02:45;;;;;;;5.53;4.20;;;11.30;99.90;;;;;;5028520;28;20471;-62
2023/03/22 06:05:12;;;;;;;5.13;4.47;;;11.30;99.90;;;;;;5030543;28;20443;-62
2023/03/22 06:07:39;;;;;;;5.30;4.50;;;11.30;99.90;;;;;;5029924;28;20903;-62
2023/03/22 06:10:06;;;;;;;5.90;4.63;;;11.20;99.90;;;;;;5029157;28;20471;-62
2023/03/22 06:12:32;;;;;;;6.60;4.60;;;11.20;99.90;;;;;;5026250;28;20454;-62
2023/03/22 06:14:58;;;;;;;7.10;4.30;;;11.20;99.90;;;;;;5020802;28;20539;-62
2023/03/22 06:17:24;;;;;;;9.97;4.87;;;11.20;99.90;;;;;;5028027;28;20767;-62
2023/03/22 06:19:51;;;;;;;6.60;4.47;;;11.20;99.90;;;;;;5030579;28;20634;-62
2023/03/22 06:22:17;;;;;;;7.20;4.60;;;11.20;99.90;;;;;;5026216;28;21515;-62
2023/03/22 06:24:43;;;;;;;6.07;4.53;;;11.20;99.90;;;;;;5029390;28;20450;-62
2023/03/22 06:27:09;;;;;;;4.97;4.37;;;11.20;99.90;;;;;;5022587;28;20502;-62
2023/03/22 06:29:35;;;;;;;5.13;4.53;;;11.20;99.90;;;;;;5029464;28;20443;-62
2023/03/22 06:32:01;;;;;;;6.77;4.40;;;11.20;99.90;;;;;;5024658;28;20465;-62
2023/03/22 06:34:27;;;;;;;7.60;4.90;;;11.20;99.90;;;;;;5029288;28;20853;-62
2023/03/22 06:36:53;;;;;;;7.50;4.57;;;11.30;99.90;;;;;;5028579;28;20470;-62
2023/03/22 06:39:19;;;;;;;11.13;5.23;;;11.30;99.90;;;;;;5030498;28;20615;-62
2023/03/22 06:41:45;;;;;;;10.53;4.80;;;11.30;99.90;;;;;;5027311;28;20267;-63
2023/03/22 06:44:11;;;;;;;8.53;5.03;;;11.30;99.90;;;;;;5024894;28;20697;-62
2023/03/22 06:46:37;;;;;;;9.10;4.67;;;11.30;99.90;;;;;;5025597;28;20216;-63
2023/03/22 06:49:03;;;;;;;8.23;5.00;;;11.40;99.90;;;;;;5030762;28;20530;-63
2023/03/22 06:51:28;;;;;;;5.70;4.53;;;11.40;99.90;;;;;;5027648;28;20187;-63
2023/03/22 06:53:54;;;;;;;6.30;4.97;;;11.40;99.90;;;;;;5026721;28;20441;-63
2023/03/22 06:56:19;;;;;;;6.87;5.37;;;11.40;99.90;;;;;;5024403;28;20625;-63
2023/03/22 06:58:45;;;;;;;7.13;5.40;;;11.50;99.90;;;;;;5024856;28;20291;-63
2023/03/22 07:01:11;;;;;;;7.97;4.73;;;11.60;99.90;;;;;;5026203;28;20188;-63
2023/03/22 07:03:36;;;;;;;9.00;4.70;;;11.70;99.90;;;;;;5025997;28;20439;-63
2023/03/22 07:06:04;;;;;;;7.20;5.67;;;11.60;99.90;;;;;;5023644;28;20265;-63
2023/03/22 07:08:30;;;;;;;9.37;5.23;;;11.70;99.90;;;;;;5022701;28;20731;-63
2023/03/22 07:10:56;;;;;;;16.50;5.23;;;11.70;99.90;;;;;;5023782;28;20446;-63
2023/03/22 07:13:22;;;;;;;6.30;4.73;;;11.80;99.90;;;;;;5028162;28;20182;-62
2023/03/22 07:15:47;;;;;;;5.63;4.47;;;11.90;99.90;;;;;;5024349;28;20198;-62
2023/03/22 07:18:13;;;;;;;4.40;3.90;;;12.00;99.90;;;;;;5021356;28;21046;-62
2023/03/22 07:20:40;;;;;;;6.87;4.40;;;12.10;99.90;;;;;;5028849;28;20718;-62
2023/03/22 07:23:07;;;;;;;4.73;4.23;;;12.20;99.90;;;;;;5028362;28;20192;-63
2023/03/22 07:25:33;;;;;;;6.80;4.47;;;12.20;99.90;;;;;;5028403;28;20859;-62
2023/03/22 07:27:59;;;;;;;6.57;4.50;;;12.20;99.90;;;;;;5021718;28;20455;-62
2023/03/22 07:30:25;;;;;;;10.67;5.40;;;12.30;99.90;;;;;;5025814;28;20442;-62
2023/03/22 07:32:51;;;;;;;12.23;5.70;;;12.40;99.90;;;;;;5027554;28;20449;-62
2023/03/22 07:35:17;;;;;;;12.03;4.80;;;12.50;99.90;;;;;;5026120;28;20441;-62
2023/03/22 07:37:43;;;;;;;10.60;4.50;;;12.50;99.90;;;;;;5023815;28;20200;-62
2023/03/22 07:40:10;;;;;;;7.10;5.17;;;12.60;99.90;;;;;;5025826;28;20430;-63
2023/03/22 07:42:35;;;;;;;7.60;4.67;;;12.60;99.90;;;;;;5022874;28;20483;-62
2023/03/22 07:45:01;;;;;;;7.50;4.70;;;12.70;99.90;;;;;;5018141;28;20438;-62
2023/03/22 07:47:26;;;;;;;11.13;4.87;;;12.70;99.90;;;;;;5020973;28;20222;-62
2023/03/22 07:49:52;;;;;;;8.13;4.80;;;12.80;99.90;;;;;;5023616;28;20179;-63
2023/03/22 07:52:18;;;;;;;8.17;4.50;;;12.90;99.90;;;;;;5023282;28;20217;-62
2023/03/22 07:54:43;;;;;;;4.93;3.97;;;12.90;99.90;;;;;;5028684;28;20221;-63
2023/03/22 07:57:09;;;;;;;7.37;4.17;;;13.00;99.90;;;;;;5026850;28;20207;-62
2023/03/22 07:59:35;;;;;;;6.70;4.10;;;13.10;99.90;;;;;;5023221;28;20191;-62
2023/03/22 08:02:00;;;;;;;5.80;3.60;;;13.20;99.90;;;;;;5025290;28;20188;-62
2023/03/22 08:04:26;;;;;;;11.60;4.17;;;13.30;99.90;;;;;;5021814;28;20318;-62
2023/03/22 08:06:57;;;;;;;5.30;3.60;;;13.30;99.90;;;;;;5028322;28;20306;-62
2023/03/22 08:09:24;;;;;;;11.57;3.73;;;13.40;99.90;;;;;;5024471;28;20521;-62
2023/03/22 08:11:50;;;;;;;8.67;3.83;;;13.40;99.90;;;;;;5024012;28;20521;-62
2023/03/22 08:14:16;;;;;;;7.93;3.90;;;13.60;99.90;;;;;;5020131;28;21043;-62
2023/03/22 08:16:43;;;;;;;5.20;3.63;;;13.60;99.90;;;;;;5026800;28;20462;-62
2023/03/22 08:19:09;;;;;;;6.73;3.87;;;13.70;99.90;;;;;;5025725;28;22205;-62
2023/03/22 08:21:35;;;;;;;9.50;4.20;;;13.80;99.90;;;;;;5024551;28;20856;-62
2023/03/22 08:24:04;;;;;;;5.90;3.27;;;14.00;99.90;;;;;;5027167;28;20450;-62
2023/03/22 08:26:29;;;;;;;8.60;3.43;;;14.10;99.90;;;;;;5028456;28;21970;-62
2023/03/22 08:28:55;;;;;;;4.60;3.13;;;14.20;99.90;;;;;;5030137;28;20453;-63
2023/03/22 08:31:21;;;;;;;4.77;2.87;;;14.30;99.90;;;;;;5027156;28;20211;-62
2023/03/22 08:33:48;;;;;;;4.57;3.07;;;14.40;99.90;;;;;;5025066;28;20439;-62
2023/03/22 08:36:16;;;;;;;11.80;3.60;;;14.60;99.90;;;;;;5023351;28;20442;-63
2023/03/22 08:38:43;;;;;;;5.20;2.93;;;14.70;99.90;;;;;;5028266;28;20499;-62
2023/03/22 08:41:10;;;;;;;6.40;3.60;;;14.70;99.90;;;;;;5026301;28;20510;-62
2023/03/22 08:43:35;;;;;;;3.67;3.27;;;14.80;99.90;;;;;;5022682;28;20813;-62
2023/03/22 08:46:01;;;;;;;5.57;2.97;;;14.90;99.90;;;;;;5029359;28;20462;-63
2023/03/22 08:48:30;;;;;;;5.50;3.20;;;15.00;99.90;;;;;;5026998;28;20861;-62
2023/03/22 08:50:57;;;;;;;6.90;3.20;;;15.10;99.90;;;;;;5028032;28;20183;-62
2023/03/22 08:53:23;;;;;;;4.40;3.13;;;15.10;99.90;;;;;;5027613;28;20430;-61
2023/03/22 08:55:48;;;;;;;4.37;3.20;;;15.10;99.90;;;;;;5025063;28;20835;-62
2023/03/22 08:58:15;;;;;;;3.70;2.77;;;15.10;99.90;;;;;;5024723;28;20471;-62
2023/03/22 09:00:42;;;;;;;6.20;2.63;;;15.30;99.90;;;;;;5025936;28;20212;-63
2023/03/22 09:03:08;;;;;;;5.20;2.57;;;15.30;99.90;;;;;;5024959;28;20446;-62
2023/03/22 09:05:33;;;;;;;4.27;3.20;;;15.40;99.90;;;;;;5022962;28;20466;-62
2023/03/22 09:08:00;;;;;;;5.00;2.97;;;15.50;99.90;;;;;;5023979;28;20465;-63
2023/03/22 09:10:27;;;;;;;6.70;3.00;;;15.50;99.90;;;;;;5030238;28;20191;-63
2023/03/22 09:12:52;;;;;;;4.53;2.37;;;15.50;99.90;;;;;;5026940;28;20435;-63
2023/03/22 09:15:18;;;;;;;4.10;2.13;;;15.60;99.90;;;;;;5020663;28;20441;-63
2023/03/22 09:17:44;;;;;;;2.73;2.20;;;15.60;99.90;;;;;;5028013;28;20236;-63
2023/03/22 09:20:10;;;;;;;3.87;2.20;;;15.50;99.90;;;;;;5016433;28;20681;-63
2023/03/22 09:22:36;;;;;;;3.30;2.40;;;15.50;99.90;;;;;;5026070;28;20271;-62
2023/03/22 09:25:02;;;;;;;3.90;2.53;;;15.50;99.90;;;;;;5027630;28;20180;-63
2023/03/22 09:27:27;;;;;;;3.60;2.70;;;15.50;99.90;;;;;;5023223;28;20504;-62
2023/03/22 09:29:53;;;;;;;3.50;2.60;;;15.50;99.90;;;;;;5020344;28;21225;-63
2023/03/22 09:32:19;;;;;;;4.53;2.70;;;15.50;99.90;;;;;;5024983;28;20177;-62
2023/03/22 09:34:44;;;;;;;3.00;2.37;;;15.50;99.90;;;;;;5027421;28;20208;-62
2023/03/22 09:37:11;;;;;;;3.97;2.20;;;15.60;99.90;;;;;;5019614;28;20994;-62
2023/03/22 09:39:38;;;;;;;8.20;3.10;;;15.60;99.90;;;;;;5019720;28;20661;-62
2023/03/22 09:42:09;;;;;;;4.37;2.40;;;15.70;99.90;;;;;;5023619;28;20481;-63
2023/03/22 09:44:41;;;;;;;8.07;3.00;;;15.80;99.90;;;;;;5027130;28;20956;-62
2023/03/22 09:47:15;;;;;;;4.87;2.10;;;15.80;99.90;;;;;;5025832;28;21168;-62
2023/03/22 09:49:47;;;;;;;4.33;2.63;;;15.90;99.90;;;;;;5024777;28;20438;-62
2023/03/22 09:52:15;;;;;;;3.30;2.20;;;16.10;99.90;;;;;;5021883;28;20461;-62
2023/03/22 09:54:44;;;;;;;3.40;2.50;;;16.10;99.90;;;;;;5021315;28;20496;-62
2023/03/22 09:57:37;;;;;;;3.33;2.33;;;16.10;99.90;;;;;;5025995;28;20457;-62
2023/03/22 10:00:25;;;;;;;5.43;2.77;;;16.20;99.90;;;;;;5024218;28;20447;-62
2023/03/22 10:03:04;;;;;;;8.37;3.30;;;16.20;99.90;;;;;;5023488;28;20446;-62
2023/03/22 10:05:30;;;;;;;4.37;2.90;;;16.20;99.90;;;;;;5023401;28;20843;-62
2023/03/22 10:08:12;;;;;;;12.17;3.30;;;16.30;99.90;;;;;;5023965;28;20452;-62
2023/03/22 10:10:40;;;;;;;3.40;2.43;;;16.30;99.90;;;;;;5022956;28;20601;-61
2023/03/22 10:13:35;;;;;;;2.30;2.07;;;16.20;99.90;;;;;;5028788;28;20427;-61
2023/03/22 10:16:05;;;;;;;3.40;2.50;;;16.10;99.90;;;;;;5026771;28;20458;-62
2023/03/22 10:18:47;;;;;;;5.30;2.70;;;16.20;99.90;;;;;;5026994;28;20437;-62
2023/03/22 10:21:16;;;;;;;2.63;2.13;;;16.30;99.90;;;;;;5024999;28;20447;-62
2023/03/22 10:23:48;;;;;;;2.83;2.10;;;16.40;99.90;;;;;;5025713;28;21203;-62
2023/03/22 10:26:37;;;;;;;5.47;3.00;;;16.50;99.90;;;;;;5023850;28;20502;-63
2023/03/22 10:29:09;;;;;;;3.20;2.50;;;16.50;99.90;;;;;;5022342;28;20971;-61
2023/03/22 10:31:34;;;;;;;3.70;2.80;;;16.50;99.90;;;;;;5031373;28;21870;-63
2023/03/22 10:34:05;;;;;;;3.60;2.23;;;16.70;99.90;;;;;;5022218;28;21242;-62
2023/03/22 10:36:34;;;;;;;9.90;2.77;;;16.90;99.90;;;;;;5026680;28;20242;-62
2023/03/22 10:39:17;;;;;;;16.70;4.83;;;16.90;99.90;;;;;;5027307;28;20857;-62
2023/03/22 10:41:43;;;;;;;2.70;2.30;;;17.00;99.90;;;;;;5028374;28;20833;-63
2023/03/22 10:44:16;;;;;;;3.10;2.50;;;17.00;99.90;;;;;;5029126;28;20435;-63
2023/03/22 10:46:43;;;;;;;6.83;2.77;;;17.00;99.90;;;;;;5028566;28;20481;-63
2023/03/22 10:49:16;;;;;;;7.53;2.87;;;17.10;99.90;;;;;;5028266;28;20430;-62
2023/03/22 10:51:50;;;;;;;3.47;2.40;;;17.20;99.90;;;;;;5024977;28;20439;-63
2023/03/22 10:54:20;;;;;;;4.67;2.80;;;17.20;99.90;;;;;;5022358;28;20523;-63
2023/03/22 10:56:45;;;;;;;3.10;2.77;;;17.40;99.90;;;;;;5020998;28;20455;-60
2023/03/22 10:59:48;;;;;;;3.43;2.30;;;17.30;99.90;;;;;;5028550;28;20477;-60
2023/03/22 11:02:26;;;;;;;3.40;2.63;;;17.40;99.90;;;;;;5021951;28;20198;-61
2023/03/22 11:04:55;;;;;;;4.13;2.20;;;17.30;99.90;;;;;;5026484;28;20972;-61
2023/03/22 11:07:36;;;;;;;3.40;2.20;;;17.30;99.90;;;;;;5023963;28;20478;-61
2023/03/22 11:10:08;;;;;;;2.77;2.47;;;17.30;99.90;;;;;;5013363;28;20455;-62
2023/03/22 11:12:43;;;;;;;3.33;2.13;;;17.30;99.90;;;;;;5023794;28;20951;-62
2023/03/22 11:15:27;;;;;;;3.50;2.43;;;17.30;99.90;;;;;;5022187;28;20439;-62
2023/03/22 11:17:58;;;;;;;3.20;2.30;;;17.40;99.90;;;;;;5024712;28;20585;-62
2023/03/22 11:20:24;;;;;;;4.53;2.50;;;17.70;99.90;;;;;;5023146;28;20962;-62
2023/03/22 11:22:50;;;;;;;4.03;2.57;;;17.70;99.90;;;;;;5015378;28;20446;-62
2023/03/22 11:25:25;;;;;;;3.10;2.43;;;17.70;99.90;;;;;;5021505;28;20458;-62
2023/03/22 11:27:54;;;;;;;2.50;2.30;;;17.80;99.90;;;;;;5023067;28;20514;-63
2023/03/22 11:30:26;;;;;;;3.60;2.23;;;17.90;99.90;;;;;;5020815;28;20912;-62
2023/03/22 11:33:02;;;;;;;3.30;2.23;;;17.90;99.90;;;;;;5024890;28;20537;-63
2023/03/22 11:35:29;;;;;;;3.53;2.20;;;18.00;99.90;;;;;;5028886;28;20435;-62
2023/03/22 11:37:55;;;;;;;3.50;2.90;;;18.10;99.90;;;;;;5022340;28;21106;-63
2023/03/22 11:40:28;;;;;;;2.80;2.40;;;18.10;99.90;;;;;;5021712;28;20438;-62
2023/03/22 11:43:02;;;;;;;2.63;2.13;;;18.30;99.90;;;;;;5025635;28;20446;-63
2023/03/22 11:45:34;;;;;;;2.33;2.13;;;18.30;99.90;;;;;;5029301;28;20426;-62
2023/03/22 11:48:23;;;;;;;2.30;2.10;;;18.30;99.90;;;;;;5027618;28;20455;-62
2023/03/22 11:50:52;;;;;;;3.50;2.17;;;18.40;99.90;;;;;;5040494;28;20436;-62
2023/03/22 11:53:25;;;;;;;2.50;2.07;;;18.60;99.90;;;;;;5034674;28;20420;-63
2023/03/22 11:55:54;;;;;;;4.53;2.87;;;18.70;99.90;;;;;;5026356;28;20797;-63
2023/03/22 11:58:27;;;;;;;3.27;2.23;;;18.90;99.90;;;;;;5023958;28;20434;-62
2023/03/22 12:00:57;;;;;;;2.63;2.30;;;19.00;99.80;;;;;;5026178;28;20454;-62
2023/03/22 12:03:26;;;;;;;3.27;2.40;;;19.20;99.60;;;;;;5028232;28;20435;-62
2023/03/22 12:05:52;;;;;;;3.73;2.60;;;19.40;98.70;;;;;;5023753;28;20552;-63
2023/03/22 12:08:39;;;;;;;2.60;2.40;;;19.80;98.90;;;;;;5024061;28;20545;-64
2023/03/22 12:11:09;;;;;;;3.17;2.87;;;20.60;97.60;;;;;;5018993;28;20438;-64
2023/03/22 12:13:45;;;;;;;3.10;2.80;;;22.50;94.80;;;;;;5028301;28;20866;-63
2023/03/22 12:16:14;;;;;;;2.77;2.43;;;23.70;92.10;;;;;;5023494;28;20445;-63
2023/03/22 12:19:04;;;;;;;3.17;2.50;;;25.00;85.90;;;;;;5020590;28;20438;-62
2023/03/22 12:21:30;;;;;;;4.20;2.70;;;25.10;80.60;;;;;;5020523;28;20454;-62
2023/03/22 12:24:03;;;;;;;4.93;3.00;;;25.90;77.80;;;;;;5024200;28;20454;-62
2023/03/22 12:26:31;;;;;;;3.20;2.60;;;26.60;72.60;;;;;;5021814;28;20473;-62
2023/03/22 12:29:05;;;;;;;3.60;2.40;;;26.00;72.10;;;;;;5020156;28;20968;-62
2023/03/22 12:32:11;;;;;;;3.10;2.60;;;27.10;67.80;;;;;;5024958;28;20425;-62
2023/03/22 12:34:47;;;;;;;2.83;2.63;;;28.20;63.00;;;;;;5021144;28;20447;-62
2023/03/22 12:37:34;;;;;;;2.50;2.30;;;27.30;60.10;;;;;;5025392;28;20494;-62
2023/03/22 12:40:07;;;;;;;3.47;2.63;;;26.90;60.90;;;;;;5023565;28;21076;-65
2023/03/22 12:42:43;;;;;;;3.40;2.63;;;27.30;59.50;;;;;;5024283;28;20860;-68
2023/03/22 12:45:17;;;;;;;5.10;3.30;;;28.10;58.50;;;;;;5024343;28;20480;-63
2023/03/22 12:47:50;;;;;;;3.80;3.17;;;28.70;57.10;;;;;;5027050;28;20492;-63
2023/03/22 12:50:32;;;;;;;3.80;3.10;;;28.70;55.90;;;;;;5024865;28;20443;-63
2023/03/22 12:53:01;;;;;;;5.93;3.90;;;29.30;55.10;;;;;;5028036;28;20525;-63
2023/03/22 12:55:31;;;;;;;4.60;3.10;;;28.90;54.40;;;;;;5026314;28;20493;-63
2023/03/22 12:57:57;;;;;;;3.83;2.97;;;28.60;53.60;;;;;;5025328;28;21045;-63
2023/03/22 13:00:27;;;;;;;3.40;2.80;;;27.80;54.60;;;;;;5026804;28;20792;-62